Skip to main content
Hanford.Gov
Hanford Meteorological Station

Hanford Meteorological Station

Current and Past 96 Hour Observations
Date Time (PST) Ceiling (ft) Visibility (miles) Liquid Precip* Frozen Precip* Obstruction* Sea-Level Pressure (mbs) Dew Point Temp. (°F) Wind Direction (degrees) Wind Direction (from) Wind Speed (mph) Mixing Height (m) Station Pressure (inches Hg) Ambient Temp. (°F) Wet Bulb Temp. (°F) Rel. Hum. (%) Sky Cover (tenths) Rain (inches) Snow (melted inches) Snow (unmelted inches) Solar Radiation (Langleys / min.) WBGT** (°F)
05/16/2021 0300 UNL 15 1010.9 31 10° N 7 1500 29.08 87 58 14 0 0.00 0.00 0.0 0.82 0
05/16/2021 0200 UNL 15 1010.9 31 10° N 7 1500 29.08 87 58 14 0 0.00 0.00 0.0 0.82 0
05/16/2021 0100 UNL 15 1010.9 31 10° N 7 1500 29.08 87 58 14 0 0.00 0.00 0.0 0.82 0
05/15/2021 2400 UNL 15 1010.9 31 10° N 7 1500 29.08 87 58 14 0 0.00 0.00 0.0 0.82 0
05/15/2021 2300 UNL 15 1010.9 31 10° N 7 1500 29.08 87 58 14 0 0.00 0.00 0.0 0.82 0
05/15/2021 2200 UNL 15 1010.9 31 10° N 7 1500 29.08 87 58 14 0 0.00 0.00 0.0 0.82 0
05/15/2021 2100 UNL 15 1010.9 31 10° N 7 1500 29.08 87 58 14 0 0.00 0.00 0.0 0.82 0
05/15/2021 2000 UNL 15 1010.9 31 10° N 7 1500 29.08 87 58 14 0 0.00 0.00 0.0 0.82 0
05/15/2021 1900 UNL 15 1010.9 31 10° N 7 1500 29.08 87 58 14 0 0.00 0.00 0.0 0.82 0
05/15/2021 1800 UNL 15 1010.9 31 10° N 7 1500 29.08 87 58 14 0 0.00 0.00 0.0 0.82 0
05/15/2021 1700 UNL 15 1010.9 31 10° N 7 1500 29.08 87 58 14 0 0.00 0.00 0.0 0.82 0
05/15/2021 1600 UNL 15 1010.9 31 10° N 7 1500 29.08 87 58 14 0 0.00 0.00 0.0 0.82 0
05/15/2021 1500 UNL 15 1011.4 31 300° WNW 4 1500 29.10 86 58 14 0 0.00 0.00 0.0 0.99 0
05/15/2021 1400 UNL 15 1012.2 34 40° NE 9 1500 29.12 86 59 16 1 0.00 0.00 0.0 1.15 0
05/15/2021 1300 UNL 15 1012.7 34 40° NE 8 1500 29.13 85 58 16 0 0.00 0.00 0.0 1.25 0
05/15/2021 1200 UNL 15 1013.4 36 310° NW 7 1400 29.15 82 58 19 0 0.00 0.00 0.0 1.27 0
05/15/2021 1100 UNL 15 1013.8 36 80° E 5 1400 29.16 80 57 20 0 0.00 0.00 0.0 1.21 0
05/15/2021 1000 UNL 15 1014.2 37 20° NNE 5 1300 29.18 78 56 22 0 0.00 0.00 0.0 1.08 0
05/15/2021 0900 UNL 15 1014.5 37 340° NNW 9 1200 29.18 75 56 25 0 0.00 0.00 0.0 0.90 0
05/15/2021 0800 UNL 15 1014.6 36 340° NNW 7 1100 29.19 73 54 26 0 0.00 0.00 0.0 0.66 0
05/15/2021 0700 UNL 15 1014.4 35 300° WNW 11 900 29.18 70 52 28 0 0.00 0.00 0.0 0.41 0
05/15/2021 0600 UNL 15 1013.9 34 300° WNW 11 400 29.17 64 50 32 0 0.00 0.00 0.0 0.18 0
05/15/2021 0500 UNL 15 1013.4 33 290° WNW 11 600 29.15 63 49 33 0 0.00 0.00 0.0 0.02 0
05/15/2021 0400 NA 15 1013.5 35 290° WNW 11 NA 29.15 62 48 37 NA 0.00 0.00 0.0 0.00 0
05/15/2021 0300 NA 15 1013.1 37 280° W 9 NA 29.14 62 49 39 NA 0.00 0.00 0.0 0.00 0
05/15/2021 0200 NA 15 1013.2 38 290° WNW 11 NA 29.15 64 51 38 NA 0.00 0.00 0.0 0.00 0
05/15/2021 0100 NA 15 1013.0 38 270° W 10 NA 29.14 65 51 37 NA 0.00 0.00 0.0 0.00 0
05/14/2021 2400 NA 15 1012.8 38 300° WNW 15 NA 29.14 67 52 34 NA 0.00 0.00 0.0 0.00 0
05/14/2021 2300 NA 15 1012.4 36 310° NW 17 NA 29.13 68 52 30 NA 0.00 0.00 0.0 0.00 0
05/14/2021 2200 NA 15 1012.2 34 310° NW 20 NA 29.12 70 52 26 NA 0.00 0.00 0.0 0.00 0
05/14/2021 2100 NA 15 1012.3 35 310° NW 16 NA 29.12 73 53 25 NA 0.00 0.00 0.0 0.00 0
05/14/2021 2000 NA 15 1011.6 36 300° WNW 14 NA 29.10 75 55 24 NA 0.00 0.00 0.0 0.01 0
05/14/2021 1900 NA 15 1011.0 32 160° SSE 8 NA 29.08 81 56 17 NA 0.00 0.00 0.0 0.14 0
05/14/2021 1800 NA 15 1011.1 29 300° WNW 9 NA 29.09 83 56 14 NA 0.00 0.00 0.0 0.36 0
05/14/2021 1700 NA 15 1011.4 25 270° W 12 NA 29.10 85 55 12 NA 0.00 0.00 0.0 0.61 0
05/14/2021 1600 NA 15 1011.7 31 320° NW 11 NA 29.11 85 57 14 NA 0.00 0.00 0.0 0.86 0
05/14/2021 1500 UNL 15 1012.3 34 10° N 7 1500 29.12 84 58 17 3 0.00 0.00 0.0 1.06 0
05/14/2021 1400 UNL 15 1013.1 33 320° NW 9 1500 29.14 83 57 17 3 0.00 0.00 0.0 1.17 0
05/14/2021 1300 UNL 15 1013.8 37 330° NNW 7 1500 29.16 83 58 19 3 0.00 0.00 0.0 1.27 0
05/14/2021 1200 UNL 15 1014.7 36 320° NW 5 1500 29.19 80 57 20 1 0.00 0.00 0.0 1.28 0
05/14/2021 1100 UNL 15 1015.6 40 330° NNW 8 1500 29.22 78 57 26 2 0.00 0.00 0.0 1.21 0
05/14/2021 1000 UNL 15 1016.0 39 330° NNW 7 1200 29.22 75 56 27 4 0.00 0.00 0.0 1.11 0
05/14/2021 0900 UNL 15 1016.2 39 340° NNW 7 900 29.23 72 54 31 6 0.00 0.00 0.0 0.84 0
05/14/2021 0800 UNL 15 1016.4 39 320° NW 12 700 29.24 69 53 34 6 0.00 0.00 0.0 0.57 0
05/14/2021 0700 25000 15 1016.4 39 320° NW 12 500 29.24 65 52 39 9 0.00 0.00 0.0 0.33 0
05/14/2021 0600 25000 15 1016.2 36 300° WNW 9 200 29.23 62 50 38 9 0.00 0.00 0.0 0.16 0
05/14/2021 0500 25000 15 1015.7 36 280° W 9 200 29.22 60 48 41 9 0.00 0.00 0.0 0.02 0
05/14/2021 0400 NA 15 1015.4 36 280° W 11 NA 29.21 61 48 39 NA 0.00 0.00 0.0 0.00 0
05/14/2021 0300 NA 15 1015.5 35 310° NW 14 NA 29.21 63 49 36 NA 0.00 0.00 0.0 0.00 0
05/14/2021 0200 NA 15 1015.5 34 320° NW 13 NA 29.21 64 49 33 NA 0.00 0.00 0.0 0.00 0
05/14/2021 0100 25000 15 1016.0 33 280° W 9 700 29.23 65 50 30 10 0.00 0.00 0.0 0.00 0
05/13/2021 2400 25000 15 1016.2 37 290° WNW 10 700 29.23 67 52 33 10 0.00 0.00 0.0 0.00 0
05/13/2021 2300 25000 15 1016.6 36 280° W 9 600 29.24 65 51 34 10 0.00 0.00 0.0 0.00 0
05/13/2021 2200 25000 15 1016.4 35 270° W 8 600 29.24 66 51 32 10 0.00 0.00 0.0 0.00 0
05/13/2021 2100 25000 15 1016.4 34 180° S 6 900 29.24 69 52 28 10 0.00 0.00 0.0 0.00 0
05/13/2021 2000 25000 15 1016.2 34 60° ENE 4 1200 29.23 72 53 25 10 0.00 0.00 0.0 0.01 0
05/13/2021 1900 16000 15 1015.7 36 40° NE 8 1500 29.22 77 56 23 10 0.00 0.00 0.0 0.09 0
05/13/2021 1800 25000 15 1015.5 37 10° N 7 1500 29.21 78 56 22 10 0.00 0.00 0.0 0.24 0
05/13/2021 1700 25000 15 1016.0 37 50° NE 7 1500 29.22 80 57 21 10 0.00 0.00 0.0 0.55 0
05/13/2021 1600 UNL 15 1016.3 37 360° N 6 1400 29.23 80 57 21 10 0.00 0.00 0.0 0.81 0
05/13/2021 1500 UNL 15 1016.4 38 280° W 8 1400 29.24 80 58 22 10 0.00 0.00 0.0 1.00 0
05/13/2021 1400 25000 15 1017.3 38 150° SSE 9 29.26 79 57 23 10 0.00 0.00 0.0 1.01 0
05/13/2021 1300 25000 15 1018.0 38 60° ENE 7 1400 29.28 77 56 24 10 0.00 0.00 0.0 0.99 0
05/13/2021 1200 25000 15 1018.8 38 150° SSE 4 1400 29.31 76 56 25 10 0.00 0.00 0.0 1.23 0
05/13/2021 1100 UNL 15 1019.4 38 220° SW 5 1400 29.32 74 55 27 9 0.00 0.00 0.0 1.14 0
05/13/2021 1000 UNL 15 1019.9 39 360° N 4 1400 29.34 72 54 30 10 0.00 0.00 0.0 1.06 0
05/13/2021 0900 UNL 15 1020.1 39 20° NNE 4 1200 29.34 70 54 33 9 0.00 0.00 0.0 0.89 0
05/13/2021 0800 UNL 15 1020.2 39 320° NW 4 1200 29.35 69 52 36 7 0.00 0.00 0.0 0.65 0
05/13/2021 0700 UNL 15 1020.1 40 300° WNW 8 1000 29.34 63 51 43 7 0.00 0.00 0.0 0.39 0
05/13/2021 0600 UNL 15 1019.6 40 300° WNW 8 700 29.33 60 50 48 10 0.00 0.00 0.0 0.17 0
05/13/2021 0500 NA 15 1019.2 41 280° W 8 NA 29.32 55 48 58 NA 0.00 0.00 0.0 0.02 0
05/13/2021 0400 NA 15 1018.9 42 300° WNW 10 NA 29.31 56 49 58 NA 0.00 0.00 0.0 0.00 0
05/13/2021 0300 NA 15 1018.4 42 290° WNW 10 NA 29.30 56 49 57 NA 0.00 0.00 0.0 0.00 0
05/13/2021 0200 NA 15 1018.1 42 310° NW 11 NA 29.29 59 50 52 NA 0.00 0.00 0.0 0.00 0
05/13/2021 0100 UNL 15 1018.3 41 310° NW 11 700 29.29 60 50 48 0 0.00 0.00 0.0 0.00 0
05/12/2021 2400 UNL 15 1018.0 40 320° NW 13 800 29.28 62 51 44 0 0.00 0.00 0.0 0.00 0
05/12/2021 2300 UNL 15 1017.3 39 320° NW 15 800 29.26 64 51 40 0 0.00 0.00 0.0 0.00 0
05/12/2021 2200 UNL 15 1017.0 38 320° NW 17 1000 29.25 67 52 34 0 0.00 0.00 0.0 0.00 0
05/12/2021 2100 UNL 15 1016.3 37 310° NW 17 1000 29.23 70 53 30 0 0.00 0.00 0.0 0.00 0
05/12/2021 2000 UNL 15 1015.1 31 70° ENE 4 1100 29.20 72 52 22 1 0.00 0.00 0.0 0.01 0
05/12/2021 1900 11000 15 1014.6 31 110° ESE 6 1400 29.18 76 54 19 6 0.00 0.00 0.0 0.10 0
05/12/2021 1800 11000 15 1013.8 31 120° ESE 5 1500 29.16 80 55 17 8 0.00 0.00 0.0 0.28 0
05/12/2021 1700 11000 15 1014.2 30 110° ESE 6 1500 29.17 80 55 17 7 0.00 0.00 0.0 0.27 0
05/12/2021 1600 UNL 15 1014.3 31 90° E 7 1500 29.18 82 56 16 5 0.00 0.00 0.0 0.77 0
05/12/2021 1500 UNL 15 1014.7 30 90° E 10 1500 29.18 81 55 16 6 0.00 0.00 0.0 0.93 0
05/12/2021 1400 11000 15 1015.6 31 110° ESE 5 1300 29.21 78 54 18 8 0.00 0.00 0.0 0.63 0
05/12/2021 1300 11000 15 1015.8 30 110° ESE 4 1300 29.22 77 54 18 10 0.00 0.00 0.0 0.76 0
05/12/2021 1200 25000 15 1016.3 31 120° ESE 5 1200 29.24 77 54 18 10 0.00 0.00 0.0 0.96 0
05/12/2021 1100 UNL 15 1016.7 32 80° E 7 1200 29.24 75 54 20 9 0.00 0.00 0.0 1.16 0
05/12/2021 1000 UNL 15 1017.3 33 90° E 5 1000 29.26 72 52 24 9 0.00 0.00 0.0 1.02 0
05/12/2021 0900 UNL 15 1017.6 33 260° W 3 700 29.27 68 50 27 9 0.00 0.00 0.0 0.78 0
05/12/2021 0800 UNL 15 1017.9 33 300° WNW 4 600 29.28 65 48 31 9 0.00 0.00 0.0 0.63 0
05/12/2021 0700 15000 15 1018.0 32 180° S 2 140 29.28 57 45 39 9 0.00 0.00 0.0 0.32 0
05/12/2021 0600 12000 15 1017.6 32 80° E 3 140 29.27 54 43 44 7 0.00 0.00 0.0 0.07 0
05/12/2021 0500 NA 15 1017.8 30 240° WSW 3 NA 29.27 51 41 44 NA 0.00 0.00 0.0 0.01 0
05/12/2021 0400 NA 15 1017.4 31 210° SSW 2 NA 29.26 52 42 45 NA 0.00 0.00 0.0 0.00 0
NA = information not available due to unmanned weather station
*= This weather occurred at observation time or during the hour
** WBGT is the Web Bulb Global Temperature Outside observed at HMS (0=unavailable)
NA = information not available due to unmanned weather station
*= This weather occurred at observation time or during the hour
** WBGT is the Web Bulb Global Temperature Outside observed at HMS (0=unavailable)